createdAt,value
2016-04-14T00:00:50.095Z,55.54
2016-04-14T00:01:50.113Z,55.54
2016-04-14T00:02:50.131Z,55.54
2016-04-14T00:03:50.149Z,55.16
2016-04-14T00:04:50.386Z,55.45
2016-04-14T00:05:50.202Z,55.74
2016-04-14T00:06:50.221Z,55.64
2016-04-14T00:07:50.238Z,55.07
2016-04-14T00:08:50.271Z,55.64
2016-04-14T00:09:50.289Z,55.45
2016-04-14T00:10:50.307Z,55.54
2016-04-14T00:11:50.325Z,55.35
2016-04-14T00:12:50.360Z,55.35
2016-04-14T00:13:50.377Z,55.45
2016-04-14T00:14:50.396Z,54.97
2016-04-14T00:15:50.415Z,55.07
2016-04-14T00:16:50.448Z,55.45
2016-04-14T00:17:50.466Z,55.45
2016-04-14T00:18:50.501Z,55.45
2016-04-14T00:19:50.519Z,55.35
2016-04-14T00:20:50.537Z,55.26
2016-04-14T00:21:50.556Z,55.83
2016-04-14T00:22:50.574Z,55.93
2016-04-14T00:23:50.607Z,55.83
2016-04-14T00:24:50.626Z,55.83
2016-04-14T00:25:50.644Z,55.83
2016-04-14T00:26:50.663Z,55.83
2016-04-14T00:27:50.697Z,55.54
2016-04-14T00:28:50.714Z,55.54
2016-04-14T00:29:50.734Z,56.02
2016-04-14T00:30:50.767Z,55.83
2016-04-14T00:31:50.800Z,55.83
2016-04-14T00:32:50.804Z,55.64
2016-04-14T00:33:50.822Z,56.02
2016-04-14T00:34:50.841Z,56.31
2016-04-14T00:35:50.894Z,55.93
2016-04-14T00:36:50.899Z,55.99
2016-04-14T00:37:50.902Z,56.02
2016-04-14T00:38:50.936Z,56.02
2016-04-14T00:39:50.954Z,56.02
2016-04-14T00:40:50.988Z,56.12
2016-04-14T00:41:51.007Z,55.74
2016-04-14T00:42:51.025Z,56.12
2016-04-14T00:43:51.059Z,56.12
2016-04-14T00:44:51.062Z,56.12
2016-04-14T00:45:51.096Z,55.99
2016-04-14T00:46:51.115Z,56.95
2016-04-14T00:47:52.554Z,56.85
2016-04-14T00:48:51.151Z,56.47
2016-04-14T00:49:51.185Z,57.07
2016-04-14T00:50:51.203Z,56.67
2016-04-14T00:51:51.220Z,56.09
2016-04-14T00:52:51.240Z,56.38
2016-04-14T00:53:51.273Z,56.57
2016-04-14T00:54:51.292Z,56.57
2016-04-14T00:55:51.310Z,56.47
2016-04-14T00:56:51.328Z,56.57
2016-04-14T00:57:51.347Z,56.67
2016-04-14T00:58:51.380Z,56.47
2016-04-14T00:59:51.399Z,56.57
2016-04-14T01:00:51.417Z,56.67
2016-04-14T01:01:51.435Z,56.57
2016-04-14T01:02:51.469Z,56.38
2016-04-14T01:03:51.488Z,56.47
2016-04-14T01:04:51.505Z,56.67
2016-04-14T01:05:51.541Z,56.57
2016-04-14T01:06:51.558Z,56.57
2016-04-14T01:07:51.577Z,56.67
2016-04-14T01:08:51.595Z,56.47
2016-04-14T01:09:51.613Z,56.95
2016-04-14T01:10:51.647Z,56.67
2016-04-14T01:11:51.665Z,56.57
2016-04-14T01:12:51.887Z,56.57
2016-04-14T01:13:51.702Z,56.47
2016-04-14T01:14:51.579Z,56.85
2016-04-14T01:15:51.754Z,56.85
2016-04-14T01:16:51.773Z,57.14
2016-04-14T01:17:51.806Z,56.57
2016-04-14T01:18:51.819Z,57.04
2016-04-14T01:19:51.837Z,56.67
2016-04-14T01:20:51.872Z,56.95
2016-04-14T01:21:51.889Z,56.57
2016-04-14T01:22:51.908Z,56.95
2016-04-14T01:23:51.942Z,57.04
2016-04-14T01:24:51.960Z,57.14
2016-04-14T01:25:51.978Z,56.67
2016-04-14T01:26:51.997Z,57.14
2016-04-14T01:27:52.030Z,56.67
2016-04-14T01:28:52.096Z,57.04
2016-04-14T01:29:52.068Z,56.76
2016-04-14T01:30:52.085Z,57.14
2016-04-14T01:31:52.027Z,57.14
2016-04-14T01:32:52.013Z,57.14
2016-04-14T01:33:52.157Z,57.14
2016-04-14T01:34:52.174Z,56.85
2016-04-14T01:35:52.193Z,57.14
2016-04-14T01:36:52.227Z,56.95
2016-04-14T01:37:52.245Z,56.76
2016-04-14T01:38:52.279Z,56.85
2016-04-14T01:39:52.282Z,57.24
2016-04-14T01:40:52.300Z,56.85
2016-04-14T01:41:52.318Z,56.76
2016-04-14T01:42:52.353Z,57.14
2016-04-14T01:43:52.371Z,56.95
2016-04-14T01:44:52.389Z,56.95
2016-04-14T01:45:52.423Z,57.14
2016-04-14T01:46:52.441Z,56.76
2016-04-14T01:47:52.459Z,57.14
2016-04-14T01:48:52.478Z,57.14
2016-04-14T01:49:52.512Z,57.24
2016-04-14T01:50:52.530Z,57.14
2016-04-14T01:51:52.548Z,57.24
2016-04-14T01:52:52.567Z,57.04
2016-04-14T01:53:52.585Z,57.04
2016-04-14T01:54:52.619Z,57.14
2016-04-14T01:55:52.637Z,57.14
2016-04-14T01:56:52.656Z,56.85
2016-04-14T01:57:52.674Z,57.33
2016-04-14T01:58:52.708Z,57.04
2016-04-14T01:59:52.727Z,57.24
2016-04-14T02:00:52.744Z,57.33
2016-04-14T02:01:52.763Z,57.43
2016-04-14T02:02:52.797Z,57.14
2016-04-14T02:03:52.815Z,57.62
2016-04-14T02:04:52.833Z,57.43
2016-04-14T02:05:52.851Z,57.33
2016-04-14T02:06:52.870Z,57.43
2016-04-14T02:07:52.904Z,57.43
2016-04-14T02:08:52.923Z,57.33
2016-04-14T02:09:52.956Z,57.59
2016-04-14T02:10:52.959Z,56.95
2016-04-14T02:11:52.992Z,57.31
2016-04-14T02:12:52.995Z,57.33
2016-04-14T02:13:53.029Z,57.62
2016-04-14T02:14:53.064Z,57.21
2016-04-14T02:15:53.067Z,57.02
2016-04-14T02:16:53.101Z,57.31
2016-04-14T02:17:53.118Z,57.4
2016-04-14T02:18:53.136Z,57.02
2016-04-14T02:19:53.156Z,57.21
2016-04-14T02:20:53.173Z,57.02
2016-04-14T02:21:53.208Z,57.31
2016-04-14T02:22:53.226Z,57.31
2016-04-14T02:23:53.244Z,57.31
2016-04-14T02:24:53.262Z,57.11
2016-04-14T02:25:53.296Z,57.4
2016-04-14T02:26:53.314Z,57.5
2016-04-14T02:27:53.332Z,57.5
2016-04-14T02:28:53.352Z,57.59
2016-04-14T02:29:53.385Z,57.5
2016-04-14T02:30:53.402Z,57.21
2016-04-14T02:31:53.422Z,57.4
2016-04-14T02:32:53.440Z,57.21
2016-04-14T02:33:53.458Z,57.5
2016-04-14T02:34:53.477Z,57.59
2016-04-14T02:35:53.510Z,57.11
2016-04-14T02:36:53.544Z,57.5
2016-04-14T02:37:53.547Z,57.11
2016-04-14T02:38:53.581Z,57.21
2016-04-14T02:39:53.599Z,57.21
2016-04-14T02:40:53.618Z,57.21
2016-04-14T02:41:53.636Z,57.4
2016-04-14T02:42:53.654Z,57.59
2016-04-14T02:43:53.673Z,57.5
2016-04-14T02:44:53.706Z,57.31
2016-04-14T02:45:53.725Z,57.21
2016-04-14T02:46:53.743Z,57.5
2016-04-14T02:47:53.761Z,57.31
2016-04-14T02:48:53.795Z,57.5
2016-04-14T02:49:53.814Z,57.5
2016-04-14T02:50:53.831Z,57.02
2016-04-14T02:51:53.867Z,57.4
2016-04-14T02:52:53.884Z,57.31
2016-04-14T02:53:53.887Z,57.31
2016-04-14T02:54:53.921Z,57.4
2016-04-14T02:55:53.939Z,57.11
2016-04-14T02:56:53.958Z,57.5
2016-04-14T02:57:53.975Z,57.5
2016-04-14T02:58:54.010Z,57.31
2016-04-14T02:59:54.044Z,57.31
2016-04-14T03:00:54.047Z,57.11
2016-04-14T03:01:54.065Z,57.5
2016-04-14T03:02:54.099Z,57.11
2016-04-14T03:03:54.116Z,57.31
2016-04-14T03:04:54.136Z,57.21
2016-04-14T03:05:54.169Z,57.21
2016-04-14T03:06:54.171Z,57.31
2016-04-14T03:07:54.207Z,57.11
2016-04-14T03:08:54.224Z,57.5
2016-04-14T03:09:54.243Z,57.31
2016-04-14T03:10:54.260Z,57.59
2016-04-14T03:11:54.295Z,57.78
2016-04-14T03:12:54.312Z,57.68
2016-04-14T03:13:54.332Z,57.59
2016-04-14T03:14:54.350Z,57.78
2016-04-14T03:15:54.383Z,57.68
2016-04-14T03:16:54.402Z,57.78
2016-04-14T03:17:54.420Z,57.59
2016-04-14T03:18:54.439Z,57.68
2016-04-14T03:19:54.457Z,57.59
2016-04-14T03:20:54.475Z,57.78
2016-04-14T03:21:54.494Z,57.87
2016-04-14T03:22:54.528Z,57.87
2016-04-14T03:23:54.389Z,57.68
2016-04-14T03:24:54.564Z,57.78
2016-04-14T03:25:54.583Z,58.16
2016-04-14T03:26:54.616Z,58.07
2016-04-14T03:27:54.636Z,57.68
2016-04-14T03:28:54.653Z,57.78
2016-04-14T03:29:54.687Z,57.87
2016-04-14T03:30:54.689Z,57.87
2016-04-14T03:31:54.708Z,58.26
2016-04-14T03:32:54.742Z,58.16
2016-04-14T03:33:54.760Z,57.97
2016-04-14T03:34:54.779Z,58.14
2016-04-14T03:35:54.796Z,58.26
2016-04-14T03:36:54.830Z,57.87
2016-04-14T03:37:54.849Z,58.07
2016-04-14T03:38:54.883Z,58.16
2016-04-14T03:39:54.901Z,58.14
2016-04-14T03:40:54.935Z,57.75
2016-04-14T03:41:54.938Z,57.87
2016-04-14T03:42:54.956Z,57.65
2016-04-14T03:43:54.974Z,58.04
2016-04-14T03:44:55.009Z,58.14
2016-04-14T03:45:55.011Z,58.45
2016-04-14T03:46:55.030Z,58.45
2016-04-14T03:47:55.064Z,58.42
2016-04-14T03:48:55.081Z,58.33
2016-04-14T03:49:55.101Z,58.51
2016-04-14T03:50:55.118Z,58.42
2016-04-14T03:51:55.153Z,58.51
2016-04-14T03:52:55.170Z,58.61
2016-04-14T03:53:55.189Z,58.99
2016-04-14T03:54:55.208Z,57.85
2016-04-14T03:55:55.226Z,58.9
2016-04-14T03:56:55.259Z,58.61
2016-04-14T03:57:55.277Z,58.7
2016-04-14T03:58:55.296Z,58.7
2016-04-14T03:59:55.314Z,58.7
2016-04-14T04:00:55.349Z,58.8
2016-04-14T04:01:55.351Z,58.7
2016-04-14T04:02:55.385Z,58.8
2016-04-14T04:03:55.403Z,58.7
2016-04-14T04:04:55.421Z,58.8
2016-04-14T04:05:55.455Z,58.8
2016-04-14T04:06:55.474Z,58.9
2016-04-14T04:07:55.492Z,58.61
2016-04-14T04:08:55.527Z,58.8
2016-04-14T04:09:55.373Z,58.8
2016-04-14T04:10:55.562Z,58.8
2016-04-14T04:11:55.582Z,58.8
2016-04-14T04:12:55.599Z,58.8
2016-04-14T04:13:55.618Z,58.7
2016-04-14T04:14:55.637Z,58.9
2016-04-14T04:15:55.670Z,58.7
2016-04-14T04:16:55.673Z,58.8
2016-04-14T04:17:55.691Z,58.7
2016-04-14T04:18:55.725Z,58.7
2016-04-14T04:19:55.743Z,58.7
2016-04-14T04:20:55.762Z,58.7
2016-04-14T04:21:55.781Z,58.8
2016-04-14T04:22:55.814Z,58.7
2016-04-14T04:23:55.832Z,58.7
2016-04-14T04:24:55.850Z,58.7
2016-04-14T04:25:55.869Z,58.7
2016-04-14T04:26:55.887Z,58.61
2016-04-14T04:27:55.922Z,58.61
2016-04-14T04:28:55.924Z,58.61
2016-04-14T04:29:55.957Z,58.61
2016-04-14T04:30:55.820Z,58.8
2016-04-14T04:31:55.994Z,58.7
2016-04-14T04:32:56.013Z,58.51
2016-04-14T04:33:56.031Z,58.8
2016-04-14T04:34:56.049Z,58.7
2016-04-14T04:35:56.083Z,58.7
2016-04-14T04:36:56.102Z,58.61
2016-04-14T04:37:56.119Z,58.61
2016-04-14T04:38:56.154Z,58.51
2016-04-14T04:39:56.171Z,58.8
2016-04-14T04:40:56.206Z,58.7
2016-04-14T04:41:56.193Z,58.7
2016-04-14T04:42:56.227Z,58.7
2016-04-14T04:43:56.260Z,58.8
2016-04-14T04:44:56.263Z,58.8
2016-04-14T04:45:56.282Z,58.7
2016-04-14T04:46:56.315Z,58.99
2016-04-14T04:47:56.334Z,58.04
2016-04-14T04:48:56.353Z,58.42
2016-04-14T04:49:56.386Z,58.51
2016-04-14T04:50:56.404Z,58.42
2016-04-14T04:51:56.423Z,58.51
2016-04-14T04:52:56.442Z,58.61
2016-04-14T04:53:56.459Z,58.51
2016-04-14T04:54:56.494Z,58.42
2016-04-14T04:55:56.372Z,58.14
2016-04-14T04:56:56.530Z,58.51
2016-04-14T04:57:56.548Z,58.51
2016-04-14T04:58:56.566Z,58.04
2016-04-14T04:59:56.585Z,58.42
2016-04-14T05:00:56.604Z,57.94
2016-04-14T05:01:56.638Z,58.42
2016-04-14T05:02:56.655Z,58.42
2016-04-14T05:03:56.675Z,58.33
2016-04-14T05:04:56.708Z,58.42
2016-04-14T05:05:56.711Z,58.33
2016-04-14T05:06:56.729Z,58.04
2016-04-14T05:07:56.747Z,57.94
2016-04-14T05:08:56.781Z,58.23
2016-04-14T05:09:56.800Z,58.04
2016-04-14T05:10:56.849Z,58.42
2016-04-14T05:11:56.836Z,58.04
2016-04-14T05:12:56.885Z,57.94
2016-04-14T05:13:56.947Z,58.04
2016-04-14T05:14:57.010Z,58.51
2016-04-14T05:15:57.073Z,57.94
2016-04-14T05:16:57.136Z,58.33
2016-04-14T05:17:57.204Z,58.51
2016-04-14T05:18:57.240Z,58.14
2016-04-14T05:19:57.274Z,58.51
2016-04-14T05:20:57.308Z,57.85
2016-04-14T05:21:57.343Z,58.04
2016-04-14T05:22:57.375Z,58.51
2016-04-14T05:23:57.414Z,58.99
2016-04-14T05:24:57.422Z,58.61
2016-04-14T05:25:57.508Z,58.99
2016-04-14T05:26:57.486Z,58.99
2016-04-14T05:27:57.509Z,57.94
2016-04-14T05:28:57.530Z,57.94
2016-04-14T05:29:57.565Z,58.42
2016-04-14T05:30:57.571Z,58.14
2016-04-14T05:31:58.279Z,58.8
2016-04-14T05:32:57.627Z,58.33
2016-04-14T05:33:57.646Z,58.8
2016-04-14T05:34:57.665Z,58.7
2016-04-14T05:35:57.685Z,58.7
2016-04-14T05:36:57.704Z,58.7
2016-04-14T05:37:57.738Z,58.61
2016-04-14T05:38:57.756Z,58.7
2016-04-14T05:39:57.775Z,58.51
2016-04-14T05:40:57.824Z,58.51
2016-04-14T05:41:57.843Z,58.8
2016-04-14T05:42:57.845Z,58.61
2016-04-14T05:43:57.848Z,58.9
2016-04-14T05:44:57.882Z,58.33
2016-04-14T05:45:57.900Z,58.7
2016-04-14T05:46:57.919Z,58.99
2016-04-14T05:47:57.952Z,59.28
2016-04-14T05:48:57.971Z,58.7
2016-04-14T05:49:57.990Z,59.28
2016-04-14T05:50:58.007Z,59.09
2016-04-14T05:51:58.026Z,59.09
2016-04-14T05:52:58.044Z,58.9
2016-04-14T05:53:58.062Z,58.99
2016-04-14T05:54:58.096Z,58.99
2016-04-14T05:55:58.114Z,58.9
2016-04-14T05:56:58.133Z,58.8
2016-04-14T05:57:58.151Z,59.09
2016-04-14T05:58:58.170Z,59.28
2016-04-14T05:59:58.188Z,58.9
2016-04-14T06:00:58.222Z,58.8
2016-04-14T06:01:58.240Z,58.9
2016-04-14T06:02:58.259Z,58.9
2016-04-14T06:03:58.277Z,58.9
2016-04-14T06:04:58.311Z,58.99
2016-04-14T06:05:58.328Z,59.09
2016-04-14T06:06:58.347Z,59.09
2016-04-14T06:07:58.365Z,59.19
2016-04-14T06:08:58.383Z,58.99
2016-04-14T06:09:58.418Z,58.61
2016-04-14T06:10:58.435Z,59.09
2016-04-14T06:11:58.454Z,58.51
2016-04-14T06:12:58.472Z,59.41
2016-04-14T06:13:58.490Z,58.51
2016-04-14T06:14:58.509Z,58.42
2016-04-14T06:15:58.527Z,58.99
2016-04-14T06:16:58.562Z,58.61
2016-04-14T06:17:58.579Z,58.61
2016-04-14T06:18:58.599Z,58.9
2016-04-14T06:19:58.616Z,58.54
2016-04-14T06:20:58.635Z,58.42
2016-04-14T06:21:58.653Z,58.26
2016-04-14T06:22:58.687Z,58.64
2016-04-14T06:23:58.706Z,58.64
2016-04-14T06:24:58.724Z,58.73
2016-04-14T06:25:58.743Z,58.61
2016-04-14T06:26:58.776Z,58.61
2016-04-14T06:27:58.795Z,58.73
2016-04-14T06:28:58.813Z,58.64
2016-04-14T06:29:58.831Z,58.61
2016-04-14T06:30:58.693Z,58.61
2016-04-14T06:31:58.867Z,58.9
2016-04-14T06:32:58.886Z,58.64
2016-04-14T06:33:58.919Z,58.9
2016-04-14T06:34:58.953Z,58.64
2016-04-14T06:35:58.956Z,58.36
2016-04-14T06:36:58.990Z,58.51
2016-04-14T06:37:59.008Z,58.61
2016-04-14T06:38:59.027Z,58.93
2016-04-14T06:39:59.045Z,58.73
2016-04-14T06:40:59.080Z,58.64
2016-04-14T06:41:59.082Z,58.73
2016-04-14T06:42:59.116Z,58.64
2016-04-14T06:43:59.118Z,58.64
2016-04-14T06:44:59.152Z,58.73
2016-04-14T06:45:59.296Z,58.73
2016-04-14T06:46:59.189Z,58.73
2016-04-14T06:47:59.207Z,58.64
2016-04-14T06:48:59.226Z,58.64
2016-04-14T06:49:59.259Z,58.83
2016-04-14T06:50:59.278Z,58.73
2016-04-14T06:51:59.296Z,58.73
2016-04-14T06:52:59.330Z,58.93
2016-04-14T06:53:59.349Z,58.83
2016-04-14T06:54:59.367Z,58.83
2016-04-14T06:55:59.385Z,58.83
2016-04-14T06:56:59.404Z,58.83
2016-04-14T06:57:59.422Z,58.64
2016-04-14T06:58:59.472Z,58.93
2016-04-14T06:59:59.474Z,58.83
2016-04-14T07:00:59.493Z,58.83
2016-04-14T07:01:59.512Z,58.73
2016-04-14T07:02:59.529Z,58.83
2016-04-14T07:03:59.549Z,59.02
2016-04-14T07:04:59.582Z,58.07
2016-04-14T07:05:59.616Z,59.02
2016-04-14T07:06:59.615Z,58.07
2016-04-14T07:07:59.632Z,57.78
2016-04-14T07:08:59.661Z,58.54
2016-04-14T07:09:59.788Z,58.07
2016-04-14T07:10:59.702Z,58.45
2016-04-14T07:11:59.722Z,57.97
2016-04-14T07:12:59.740Z,57.97
2016-04-14T07:13:59.766Z,57.97
2016-04-14T07:14:59.784Z,58.36
2016-04-14T07:16:00.021Z,58.45
2016-04-14T07:17:00.382Z,58.07
2016-04-14T07:17:59.866Z,58.16
2016-04-14T07:18:59.885Z,58.36
2016-04-14T07:19:59.903Z,58.36
2016-04-14T07:20:59.921Z,58.07
2016-04-14T07:21:59.940Z,57.87
2016-04-14T07:22:59.957Z,57.62
2016-04-14T07:23:59.976Z,58.38
2016-04-14T07:25:00.010Z,58.38
2016-04-14T07:26:00.028Z,58.1
2016-04-14T07:27:00.062Z,58.29
2016-04-14T07:28:00.064Z,58.19
2016-04-14T07:29:00.083Z,58.29
2016-04-14T07:30:00.101Z,58.1
2016-04-14T07:31:00.136Z,58.19
2016-04-14T07:32:00.153Z,58.38
2016-04-14T07:33:00.172Z,58.19
2016-04-14T07:34:00.190Z,58.19
2016-04-14T07:35:00.224Z,58.19
2016-04-14T07:36:00.242Z,57.9
2016-04-14T07:37:00.261Z,58.29
2016-04-14T07:38:00.280Z,58.29
2016-04-14T07:39:00.298Z,58.1
2016-04-14T07:40:00.317Z,57.71
2016-04-14T07:41:00.350Z,57.81
2016-04-14T07:42:00.369Z,58.1
2016-04-14T07:43:00.386Z,57.62
2016-04-14T07:44:00.405Z,57.9
2016-04-14T07:45:00.439Z,57.62
2016-04-14T07:46:00.457Z,57.43
2016-04-14T07:47:00.491Z,57.53
2016-04-14T07:48:00.493Z,57.43
2016-04-14T07:49:00.527Z,57.43
2016-04-14T07:50:00.546Z,57.71
2016-04-14T07:51:00.579Z,57.14
2016-04-14T07:52:00.583Z,57.43
2016-04-14T07:53:00.601Z,57.43
2016-04-14T07:54:00.635Z,57.53
2016-04-14T07:55:00.654Z,57.62
2016-04-14T07:56:00.671Z,57.53
2016-04-14T07:57:00.690Z,57.24
2016-04-14T07:58:00.708Z,57.33
2016-04-14T07:59:00.742Z,57.24
2016-04-14T08:00:00.759Z,57.43
2016-04-14T08:01:00.778Z,57.53
2016-04-14T08:02:00.797Z,57.33
2016-04-14T08:03:00.815Z,57.04
2016-04-14T08:04:00.850Z,57.04
2016-04-14T08:05:00.867Z,57.43
2016-04-14T08:06:00.886Z,57.24
2016-04-14T08:07:00.904Z,57.04
2016-04-14T08:08:00.922Z,57.24
2016-04-14T08:09:00.953Z,57.53
2016-04-14T08:10:00.965Z,57.07
2016-04-14T08:11:00.984Z,57.36
2016-04-14T08:12:01.017Z,57.26
2016-04-14T08:13:01.036Z,56.79
2016-04-14T08:14:01.054Z,57.26
2016-04-14T08:15:01.072Z,56.88
2016-04-14T08:16:01.106Z,56.98
2016-04-14T08:17:01.125Z,57.17
2016-04-14T08:18:01.143Z,57.17
2016-04-14T08:19:01.161Z,57.17
2016-04-14T08:20:01.195Z,56.98
2016-04-14T08:21:01.213Z,56.98
2016-04-14T08:22:01.232Z,56.69
2016-04-14T08:23:01.250Z,56.6
2016-04-14T08:24:01.283Z,56.98
2016-04-14T08:25:01.302Z,56.5
2016-04-14T08:26:01.320Z,56.4
2016-04-14T08:27:01.338Z,56.88
2016-04-14T08:28:01.357Z,56.5
2016-04-14T08:29:01.376Z,56.31
2016-04-14T08:30:01.410Z,56.69
2016-04-14T08:31:01.427Z,56.4
2016-04-14T08:32:01.446Z,56.05
2016-04-14T08:33:01.480Z,56.12
2016-04-14T08:34:01.514Z,56.21
2016-04-14T08:35:01.517Z,56.05
2016-04-14T08:36:01.550Z,56.05
2016-04-14T08:37:01.561Z,56.15
2016-04-14T08:38:01.579Z,55.86
2016-04-14T08:39:01.614Z,55.96
2016-04-14T08:40:01.648Z,55.57
2016-04-14T08:41:01.665Z,55.67
2016-04-14T08:42:01.684Z,55.47
2016-04-14T08:43:01.687Z,55.29
2016-04-14T08:44:01.720Z,55.38
2016-04-14T08:45:01.739Z,55.29
2016-04-14T08:46:01.757Z,54.9
2016-04-14T08:47:01.775Z,55.57
2016-04-14T08:48:01.825Z,55.57
2016-04-14T08:49:01.843Z,55.1
2016-04-14T08:50:01.846Z,55.1
2016-04-14T08:51:01.879Z,55.12
2016-04-14T08:52:01.898Z,55.67
2016-04-14T08:53:01.916Z,54.9
2016-04-14T08:54:01.950Z,55.12
2016-04-14T08:55:01.969Z,55.12
2016-04-14T08:56:01.987Z,54.93
2016-04-14T08:57:02.005Z,54.74
2016-04-14T08:58:02.023Z,54.64
2016-04-14T08:59:02.057Z,54.83
2016-04-14T09:00:02.076Z,54.55
2016-04-14T09:01:02.094Z,54.64
2016-04-14T09:02:02.129Z,54.64
2016-04-14T09:03:02.147Z,54.64
2016-04-14T09:04:02.165Z,54.36
2016-04-14T09:05:02.184Z,54.64
2016-04-14T09:06:02.218Z,54.74
2016-04-14T09:07:02.235Z,54.93
2016-04-14T09:08:02.254Z,55.02
2016-04-14T09:09:02.287Z,54.93
2016-04-14T09:10:02.306Z,55.6
2016-04-14T09:11:02.324Z,55.41
2016-04-14T09:12:02.358Z,56.43
2016-04-14T09:13:02.361Z,57.2
2016-04-14T09:14:02.394Z,56.91
2016-04-14T09:15:02.429Z,56.91
2016-04-14T09:16:02.447Z,57.23
2016-04-14T09:17:02.466Z,57.29
2016-04-14T09:18:02.484Z,56.91
2016-04-14T09:19:02.502Z,57.58
2016-04-14T09:20:02.520Z,57.68
2016-04-14T09:21:02.757Z,57.87
2016-04-14T09:22:02.572Z,58.06
2016-04-14T09:23:02.621Z,57.97
2016-04-14T09:24:02.624Z,57.97
2016-04-14T09:25:02.643Z,57.97
2016-04-14T09:26:02.661Z,57.87
2016-04-14T09:27:02.710Z,58.34
2016-04-14T09:28:02.714Z,58.34
2016-04-14T09:29:02.732Z,58.25
2016-04-14T09:30:02.766Z,58.25
2016-04-14T09:31:02.784Z,58.18
2016-04-14T09:32:02.802Z,58.66
2016-04-14T09:33:02.821Z,58.28
2016-04-14T09:34:02.854Z,58.95
2016-04-14T09:35:02.889Z,58.86
2016-04-14T09:36:02.892Z,58.86
2016-04-14T09:37:02.926Z,58.95
2016-04-14T09:38:02.929Z,58.95
2016-04-14T09:39:02.962Z,58.86
2016-04-14T09:40:02.981Z,58.86
2016-04-14T09:41:02.998Z,58.86
2016-04-14T09:42:03.126Z,58.76
2016-04-14T09:43:03.050Z,58.86
2016-04-14T09:44:03.069Z,58.76
2016-04-14T09:45:02.947Z,58.66
2016-04-14T09:46:03.121Z,59.43
2016-04-14T09:47:03.139Z,59.14
2016-04-14T09:48:03.174Z,59.14
2016-04-14T09:49:03.208Z,58.76
2016-04-14T09:50:03.210Z,58.95
2016-04-14T09:51:03.228Z,58.95
2016-04-14T09:52:03.278Z,58.95
2016-04-14T09:53:03.280Z,57.99
2016-04-14T09:54:03.299Z,59.05
2016-04-14T09:55:03.348Z,58.88
2016-04-14T09:56:03.351Z,59.17
2016-04-14T09:57:03.463Z,58.4
2016-04-14T09:58:03.388Z,58.22
2016-04-14T09:59:03.437Z,57.99
2016-04-14T10:00:03.440Z,57.83
2016-04-14T10:01:03.474Z,57.92
2016-04-14T10:02:03.493Z,57.83
2016-04-14T10:03:03.510Z,57.73
2016-04-14T10:04:03.529Z,57.73
2016-04-14T10:05:03.563Z,57.54
2016-04-14T10:06:03.581Z,57.35
2016-04-14T10:07:03.601Z,56.99
2016-04-14T10:08:03.634Z,56.71
2016-04-14T10:09:03.652Z,57.09
2016-04-14T10:10:03.671Z,56.32
2016-04-14T10:11:03.689Z,56.81
2016-04-14T10:12:03.801Z,56.42
2016-04-14T10:13:03.741Z,55.94
2016-04-14T10:14:03.775Z,55.78
2016-04-14T10:15:03.792Z,55.65
2016-04-14T10:16:03.811Z,55.11
2016-04-14T10:17:03.830Z,54.82
2016-04-14T10:18:03.864Z,54.91
2016-04-14T10:19:03.883Z,53.96
2016-04-14T10:20:03.900Z,54.24
2016-04-14T10:21:03.934Z,54.53
2016-04-14T10:22:03.952Z,54.05
2016-04-14T10:23:03.971Z,54.44
2016-04-14T10:24:04.005Z,54.05
2016-04-14T10:25:04.023Z,53.77
2016-04-14T10:26:04.057Z,53.77
2016-04-14T10:27:04.043Z,53.58
2016-04-14T10:28:04.109Z,53.19
2016-04-14T10:29:04.112Z,52.81
2016-04-14T10:30:04.146Z,52.62
2016-04-14T10:31:04.165Z,52.62
2016-04-14T10:32:04.182Z,52.71
2016-04-14T10:33:04.216Z,52.04
2016-04-14T10:34:04.235Z,51.95
2016-04-14T10:35:04.268Z,51.18
2016-04-14T10:36:04.288Z,51.85
2016-04-14T10:37:04.321Z,51.75
2016-04-14T10:38:04.324Z,51.28
2016-04-14T10:39:04.358Z,51.3
2016-04-14T10:40:04.454Z,51.01
2016-04-14T10:41:04.410Z,50.92
2016-04-14T10:42:04.303Z,50.53
2016-04-14T10:43:04.447Z,50.53
2016-04-14T10:44:04.480Z,50.53
2016-04-14T10:45:04.499Z,50.43
2016-04-14T10:46:04.517Z,50.43
2016-04-14T10:47:04.551Z,50.43
2016-04-14T10:48:04.570Z,50.43
2016-04-14T10:49:04.588Z,50.63
2016-04-14T10:50:04.622Z,50.82
2016-04-14T10:51:04.639Z,50.63
2016-04-14T10:52:04.674Z,50.82
2016-04-14T10:53:04.691Z,50.82
2016-04-14T10:54:04.726Z,51.2
2016-04-14T10:55:04.744Z,51.68
2016-04-14T10:56:04.763Z,52.07
2016-04-14T10:57:04.844Z,52.64
2016-04-14T10:58:04.830Z,52.64
2016-04-14T10:59:04.896Z,52.64
2016-04-14T11:00:04.867Z,53.12
2016-04-14T11:01:04.885Z,53.03
2016-04-14T11:02:04.904Z,53.31
2016-04-14T11:03:04.797Z,53.31
2016-04-14T11:04:04.957Z,53.22
2016-04-14T11:05:04.991Z,53.41
2016-04-14T11:06:05.009Z,52.83
2016-04-14T11:07:05.043Z,52.83
2016-04-14T11:08:05.123Z,53.5
2016-04-14T11:09:05.079Z,52.62
2016-04-14T11:10:05.098Z,53.09
2016-04-14T11:11:05.131Z,53.67
2016-04-14T11:12:05.150Z,53.09
2016-04-14T11:13:05.183Z,52.71
2016-04-14T11:14:05.202Z,53.38
2016-04-14T11:15:05.220Z,53.12
2016-04-14T11:16:05.239Z,53
2016-04-14T11:17:05.272Z,52.81
2016-04-14T11:18:05.291Z,53.03
2016-04-14T11:19:05.340Z,52.71
2016-04-14T11:20:05.342Z,52.93
2016-04-14T11:21:05.377Z,52.91
2016-04-14T11:22:05.394Z,53
2016-04-14T11:23:05.413Z,53
2016-04-14T11:24:05.432Z,53.58
2016-04-14T11:25:05.466Z,53.09
2016-04-14T11:26:05.484Z,53.09
2016-04-14T11:27:05.518Z,53.77
2016-04-14T11:28:05.583Z,53.28
2016-04-14T11:29:05.570Z,54.05
2016-04-14T11:30:05.588Z,53.86
2016-04-14T11:31:05.607Z,53.96
2016-04-14T11:32:05.625Z,54.72
2016-04-14T11:33:05.660Z,53.77
2016-04-14T11:34:05.677Z,54.34
2016-04-14T11:35:05.695Z,54.82
2016-04-14T11:36:05.729Z,54.91
2016-04-14T11:37:05.747Z,54.89
2016-04-14T11:38:05.781Z,54.6
2016-04-14T11:39:05.799Z,55.08
2016-04-14T11:40:05.817Z,54.6
2016-04-14T11:41:05.836Z,54.12
2016-04-14T11:42:05.886Z,54.03
2016-04-14T11:43:05.889Z,54.12
2016-04-14T11:44:05.922Z,54.79
2016-04-14T11:45:05.941Z,54.19
2016-04-14T11:46:05.958Z,54.77
2016-04-14T11:47:05.993Z,55.05
2016-04-14T11:48:06.011Z,54.96
2016-04-14T11:49:06.044Z,54.67
2016-04-14T11:50:06.052Z,54.77
2016-04-14T11:51:06.087Z,54.1
2016-04-14T11:52:06.105Z,54.86
2016-04-14T11:53:06.138Z,54.86
2016-04-14T11:54:06.157Z,54.67
2016-04-14T11:55:06.176Z,54.86
2016-04-14T11:56:06.225Z,55.15
2016-04-14T11:57:06.259Z,55.05
2016-04-14T11:58:06.245Z,54.96
2016-04-14T11:59:06.279Z,55.34
2016-04-14T12:00:06.298Z,55.15
2016-04-14T12:01:06.317Z,55.53
2016-04-14T12:02:06.335Z,55.63
2016-04-14T12:03:06.369Z,54.77
2016-04-14T12:04:06.387Z,55.53
2016-04-14T12:05:06.420Z,55.46
2016-04-14T12:06:06.439Z,55.08
2016-04-14T12:07:06.458Z,55.46
2016-04-14T12:08:06.491Z,55.85
2016-04-14T12:09:06.510Z,55.94
2016-04-14T12:10:06.527Z,56.16
2016-04-14T12:11:06.562Z,55.97
2016-04-14T12:12:06.596Z,55.97
2016-04-14T12:13:06.614Z,56.19
2016-04-14T12:14:06.632Z,56
2016-04-14T12:15:06.666Z,56
2016-04-14T12:16:06.685Z,56.29
2016-04-14T12:17:06.719Z,56.48
2016-04-14T12:18:06.738Z,56.29
2016-04-14T12:19:06.755Z,56.22
2016-04-14T12:20:06.774Z,56.12
2016-04-14T12:21:06.807Z,56.22
2016-04-14T12:22:06.826Z,56.02
2016-04-14T12:23:06.844Z,55.83
2016-04-14T12:24:06.862Z,55.93
2016-04-14T12:25:06.896Z,56.51
2016-04-14T12:26:06.962Z,56.31
2016-04-14T12:27:06.948Z,55.83
2016-04-14T12:28:06.968Z,55.45
2016-04-14T12:29:06.985Z,55.16
2016-04-14T12:30:07.020Z,55.45
2016-04-14T12:31:07.053Z,54.3
2016-04-14T12:32:07.072Z,54.3
2016-04-14T12:33:07.090Z,54.11
2016-04-14T12:34:07.123Z,54.01
2016-04-14T12:35:07.142Z,53.63
2016-04-14T12:36:07.175Z,53.63
2016-04-14T12:37:07.194Z,53.15
2016-04-14T12:38:07.213Z,53.34
2016-04-14T12:39:07.512Z,52.76
2016-04-14T12:40:07.265Z,52.57
2016-04-14T12:41:07.299Z,52.67
2016-04-14T12:42:07.302Z,52.67
2016-04-14T12:43:07.538Z,52.45
2016-04-14T12:44:07.354Z,52.57
2016-04-14T12:45:07.388Z,52.28
2016-04-14T12:46:07.406Z,51.9
2016-04-14T12:47:07.425Z,51.9
2016-04-14T12:48:07.458Z,51.61
2016-04-14T12:49:07.696Z,51.42
2016-04-14T12:50:07.541Z,50.94
2016-04-14T12:51:07.529Z,51.04
2016-04-14T12:52:07.562Z,50.94
2016-04-14T12:53:07.596Z,50.75
2016-04-14T12:54:07.615Z,50.75
2016-04-14T12:55:07.634Z,50.94
2016-04-14T12:56:07.668Z,50.65
2016-04-14T12:57:07.686Z,50.56